Linhares, Brazil
Current Conditions -  °F | °C
As of 6:12 PM on Friday 21 Nov 2014 (Local Time) from SBVT Reporting Station
Scattered Clouds Scattered Clouds  
Wind Chill: 79°   Ceiling: Unl
Heat Index: 81°   Visibility: 6mi
Dew Point: 68°   Wind: 18mph
Humidity: 69%   Direction: 60°ENE
Pressure: 29.94"   Gusts: NA
Location:  19.39°S, 40.05°W
Report Text: SBVT 212012Z 06016KT 9999 SCT016 26/20 Q1014 WS 05
Loading
Personal Weather Stations






























Interactive Weather Map New forecast layout! Learn more

10-Day Weather Forecast

Advertisements
Track Severe Weather on mobile